sensor_id;sensor_type;location;lat;lon;timestamp;P1;durP1;ratioP1;P2;durP2;ratioP2
43793;SDS011;29414;44.798;20.366;2022-12-07T00:00:51;41.50;;;27.50;;
43793;SDS011;29414;44.798;20.366;2022-12-07T00:04:51;41.80;;;27.37;;
43793;SDS011;29414;44.798;20.366;2022-12-07T00:08:52;38.70;;;27.13;;
43793;SDS011;29414;44.798;20.366;2022-12-07T00:12:52;44.27;;;27.47;;
43793;SDS011;29414;44.798;20.366;2022-12-07T00:16:52;40.47;;;24.77;;
43793;SDS011;29414;44.798;20.366;2022-12-07T00:20:52;34.13;;;23.67;;
43793;SDS011;29414;44.798;20.366;2022-12-07T00:24:53;36.07;;;23.57;;
43793;SDS011;29414;44.798;20.366;2022-12-07T00:28:54;41.63;;;24.10;;
43793;SDS011;29414;44.798;20.366;2022-12-07T00:32:54;47.30;;;25.17;;
43793;SDS011;29414;44.798;20.366;2022-12-07T00:36:54;45.87;;;23.97;;
43793;SDS011;29414;44.798;20.366;2022-12-07T00:40:58;49.03;;;24.30;;
43793;SDS011;29414;44.798;20.366;2022-12-07T00:44:59;45.00;;;25.90;;
43793;SDS011;29414;44.798;20.366;2022-12-07T00:48:59;38.72;;;22.95;;
43793;SDS011;29414;44.798;20.366;2022-12-07T00:52:59;44.60;;;23.70;;
43793;SDS011;29414;44.798;20.366;2022-12-07T00:57:00;44.85;;;22.83;;
43793;SDS011;29414;44.798;20.366;2022-12-07T01:01:01;37.53;;;21.43;;
43793;SDS011;29414;44.798;20.366;2022-12-07T01:05:02;39.27;;;21.43;;
43793;SDS011;29414;44.798;20.366;2022-12-07T01:09:02;37.17;;;21.40;;
43793;SDS011;29414;44.798;20.366;2022-12-07T01:13:03;39.00;;;21.07;;
43793;SDS011;29414;44.798;20.366;2022-12-07T01:17:04;42.40;;;22.17;;
43793;SDS011;29414;44.798;20.366;2022-12-07T01:21:09;44.83;;;22.97;;
43793;SDS011;29414;44.798;20.366;2022-12-07T01:25:10;52.92;;;22.40;;
43793;SDS011;29414;44.798;20.366;2022-12-07T01:29:11;41.90;;;22.40;;
43793;SDS011;29414;44.798;20.366;2022-12-07T01:33:11;40.17;;;20.73;;
43793;SDS011;29414;44.798;20.366;2022-12-07T01:37:12;46.23;;;23.83;;
43793;SDS011;29414;44.798;20.366;2022-12-07T01:41:12;42.63;;;23.17;;
43793;SDS011;29414;44.798;20.366;2022-12-07T01:45:46;45.57;;;23.67;;
43793;SDS011;29414;44.798;20.366;2022-12-07T01:53:41;41.40;;;24.08;;
43793;SDS011;29414;44.798;20.366;2022-12-07T01:57:45;40.70;;;23.00;;
43793;SDS011;29414;44.798;20.366;2022-12-07T02:01:47;41.00;;;20.30;;
43793;SDS011;29414;44.798;20.366;2022-12-07T02:05:47;42.87;;;21.00;;
43793;SDS011;29414;44.798;20.366;2022-12-07T02:09:49;46.23;;;21.97;;
43793;SDS011;29414;44.798;20.366;2022-12-07T02:13:49;38.20;;;19.63;;
43793;SDS011;29414;44.798;20.366;2022-12-07T02:17:59;47.13;;;23.07;;
43793;SDS011;29414;44.798;20.366;2022-12-07T02:22:10;47.07;;;20.83;;
43793;SDS011;29414;44.798;20.366;2022-12-07T02:30:15;45.33;;;22.17;;
43793;SDS011;29414;44.798;20.366;2022-12-07T02:38:37;44.50;;;19.83;;
43793;SDS011;29414;44.798;20.366;2022-12-07T02:42:40;36.57;;;18.13;;
43793;SDS011;29414;44.798;20.366;2022-12-07T02:46:43;39.97;;;19.63;;
43793;SDS011;29414;44.798;20.366;2022-12-07T02:50:45;38.60;;;20.03;;
43793;SDS011;29414;44.798;20.366;2022-12-07T02:54:47;25.03;;;14.80;;
43793;SDS011;29414;44.798;20.366;2022-12-07T03:02:53;24.48;;;13.60;;
43793;SDS011;29414;44.798;20.366;2022-12-07T03:06:56;21.20;;;12.57;;
43793;SDS011;29414;44.798;20.366;2022-12-07T03:10:58;20.13;;;12.23;;
43793;SDS011;29414;44.798;20.366;2022-12-07T03:15:02;18.37;;;12.77;;
43793;SDS011;29414;44.798;20.366;2022-12-07T03:19:06;25.10;;;13.77;;
43793;SDS011;29414;44.798;20.366;2022-12-07T03:23:08;22.07;;;12.57;;
43793;SDS011;29414;44.798;20.366;2022-12-07T03:27:24;23.50;;;12.33;;
43793;SDS011;29414;44.798;20.366;2022-12-07T03:31:26;22.40;;;11.47;;
43793;SDS011;29414;44.798;20.366;2022-12-07T03:35:31;19.30;;;9.10;;
43793;SDS011;29414;44.798;20.366;2022-12-07T03:40:16;17.23;;;9.70;;
43793;SDS011;29414;44.798;20.366;2022-12-07T03:43:56;18.00;;;9.43;;
43793;SDS011;29414;44.798;20.366;2022-12-07T03:52:02;16.47;;;8.00;;
43793;SDS011;29414;44.798;20.366;2022-12-07T03:56:04;11.00;;;6.73;;
43793;SDS011;29414;44.798;20.366;2022-12-07T04:00:05;13.20;;;6.73;;
43793;SDS011;29414;44.798;20.366;2022-12-07T04:04:06;13.13;;;6.93;;
43793;SDS011;29414;44.798;20.366;2022-12-07T04:08:06;9.13;;;5.80;;
43793;SDS011;29414;44.798;20.366;2022-12-07T04:12:07;9.03;;;5.80;;
43793;SDS011;29414;44.798;20.366;2022-12-07T04:16:07;7.83;;;5.87;;
43793;SDS011;29414;44.798;20.366;2022-12-07T04:20:08;7.50;;;4.90;;
43793;SDS011;29414;44.798;20.366;2022-12-07T04:24:08;7.33;;;4.97;;
43793;SDS011;29414;44.798;20.366;2022-12-07T04:28:08;7.47;;;5.17;;
43793;SDS011;29414;44.798;20.366;2022-12-07T04:32:08;5.33;;;4.30;;
43793;SDS011;29414;44.798;20.366;2022-12-07T04:36:09;5.30;;;4.33;;
43793;SDS011;29414;44.798;20.366;2022-12-07T04:40:09;5.43;;;4.53;;
43793;SDS011;29414;44.798;20.366;2022-12-07T04:44:11;6.97;;;5.00;;
43793;SDS011;29414;44.798;20.366;2022-12-07T04:48:14;5.27;;;4.23;;
43793;SDS011;29414;44.798;20.366;2022-12-07T04:52:14;5.03;;;4.50;;
43793;SDS011;29414;44.798;20.366;2022-12-07T04:56:15;6.67;;;5.27;;
43793;SDS011;29414;44.798;20.366;2022-12-07T05:00:16;5.63;;;4.90;;
43793;SDS011;29414;44.798;20.366;2022-12-07T05:04:16;6.33;;;4.80;;
43793;SDS011;29414;44.798;20.366;2022-12-07T05:08:17;7.20;;;5.10;;
43793;SDS011;29414;44.798;20.366;2022-12-07T05:12:18;7.10;;;5.37;;
43793;SDS011;29414;44.798;20.366;2022-12-07T05:16:18;6.67;;;5.53;;
43793;SDS011;29414;44.798;20.366;2022-12-07T05:20:18;6.23;;;5.40;;
43793;SDS011;29414;44.798;20.366;2022-12-07T05:24:18;6.10;;;5.50;;
43793;SDS011;29414;44.798;20.366;2022-12-07T05:28:19;6.53;;;5.60;;
43793;SDS011;29414;44.798;20.366;2022-12-07T05:32:19;8.03;;;7.13;;
43793;SDS011;29414;44.798;20.366;2022-12-07T05:36:19;6.60;;;5.73;;
43793;SDS011;29414;44.798;20.366;2022-12-07T05:40:20;6.20;;;5.60;;
43793;SDS011;29414;44.798;20.366;2022-12-07T05:44:20;7.30;;;6.60;;
43793;SDS011;29414;44.798;20.366;2022-12-07T05:48:20;6.63;;;5.67;;
43793;SDS011;29414;44.798;20.366;2022-12-07T05:52:21;7.90;;;5.77;;
43793;SDS011;29414;44.798;20.366;2022-12-07T05:56:21;7.33;;;6.50;;
43793;SDS011;29414;44.798;20.366;2022-12-07T06:00:22;7.97;;;6.27;;
43793;SDS011;29414;44.798;20.366;2022-12-07T06:04:23;9.10;;;6.77;;
43793;SDS011;29414;44.798;20.366;2022-12-07T06:08:24;8.93;;;6.33;;
43793;SDS011;29414;44.798;20.366;2022-12-07T06:12:24;9.90;;;7.20;;
43793;SDS011;29414;44.798;20.366;2022-12-07T06:16:34;7.23;;;6.47;;
43793;SDS011;29414;44.798;20.366;2022-12-07T06:20:34;7.50;;;6.67;;
43793;SDS011;29414;44.798;20.366;2022-12-07T06:24:34;6.83;;;6.23;;
43793;SDS011;29414;44.798;20.366;2022-12-07T06:28:35;8.53;;;7.67;;
43793;SDS011;29414;44.798;20.366;2022-12-07T06:32:36;9.37;;;7.37;;
43793;SDS011;29414;44.798;20.366;2022-12-07T06:36:36;9.60;;;7.10;;
43793;SDS011;29414;44.798;20.366;2022-12-07T06:40:37;8.17;;;6.33;;
43793;SDS011;29414;44.798;20.366;2022-12-07T06:44:37;7.93;;;5.73;;
43793;SDS011;29414;44.798;20.366;2022-12-07T06:48:37;10.47;;;8.17;;
43793;SDS011;29414;44.798;20.366;2022-12-07T06:52:37;8.40;;;6.93;;
43793;SDS011;29414;44.798;20.366;2022-12-07T06:56:38;10.30;;;7.47;;
43793;SDS011;29414;44.798;20.366;2022-12-07T07:00:38;12.50;;;7.50;;
43793;SDS011;29414;44.798;20.366;2022-12-07T07:04:38;9.15;;;6.80;;
43793;SDS011;29414;44.798;20.366;2022-12-07T07:08:39;7.83;;;5.93;;
43793;SDS011;29414;44.798;20.366;2022-12-07T07:12:39;8.67;;;7.63;;
43793;SDS011;29414;44.798;20.366;2022-12-07T07:16:40;6.73;;;6.00;;
43793;SDS011;29414;44.798;20.366;2022-12-07T07:20:40;9.77;;;7.50;;
43793;SDS011;29414;44.798;20.366;2022-12-07T07:24:40;8.13;;;6.75;;
43793;SDS011;29414;44.798;20.366;2022-12-07T07:28:40;10.10;;;7.63;;
43793;SDS011;29414;44.798;20.366;2022-12-07T07:32:41;9.63;;;7.57;;
43793;SDS011;29414;44.798;20.366;2022-12-07T07:36:41;8.53;;;7.40;;
43793;SDS011;29414;44.798;20.366;2022-12-07T07:40:41;9.47;;;8.13;;
43793;SDS011;29414;44.798;20.366;2022-12-07T07:44:41;12.23;;;7.87;;
43793;SDS011;29414;44.798;20.366;2022-12-07T07:48:42;9.57;;;7.60;;
43793;SDS011;29414;44.798;20.366;2022-12-07T07:52:42;8.33;;;6.40;;
43793;SDS011;29414;44.798;20.366;2022-12-07T07:56:42;9.10;;;8.10;;
43793;SDS011;29414;44.798;20.366;2022-12-07T08:00:43;8.97;;;6.60;;
43793;SDS011;29414;44.798;20.366;2022-12-07T08:04:43;9.80;;;8.17;;
43793;SDS011;29414;44.798;20.366;2022-12-07T08:08:43;9.70;;;8.47;;
43793;SDS011;29414;44.798;20.366;2022-12-07T08:12:44;11.93;;;9.27;;
43793;SDS011;29414;44.798;20.366;2022-12-07T08:17:03;11.13;;;8.93;;
43793;SDS011;29414;44.798;20.366;2022-12-07T08:21:03;13.43;;;9.00;;
43793;SDS011;29414;44.798;20.366;2022-12-07T08:25:03;16.07;;;10.50;;
43793;SDS011;29414;44.798;20.366;2022-12-07T08:29:04;13.50;;;10.47;;
43793;SDS011;29414;44.798;20.366;2022-12-07T08:33:04;15.60;;;11.43;;
43793;SDS011;29414;44.798;20.366;2022-12-07T08:37:04;13.47;;;10.33;;
43793;SDS011;29414;44.798;20.366;2022-12-07T08:41:05;15.63;;;12.50;;
43793;SDS011;29414;44.798;20.366;2022-12-07T08:45:09;14.53;;;11.33;;
43793;SDS011;29414;44.798;20.366;2022-12-07T08:49:13;16.73;;;12.33;;
43793;SDS011;29414;44.798;20.366;2022-12-07T08:53:15;16.77;;;13.30;;
43793;SDS011;29414;44.798;20.366;2022-12-07T08:57:15;15.60;;;12.50;;
43793;SDS011;29414;44.798;20.366;2022-12-07T09:01:16;14.83;;;12.40;;
43793;SDS011;29414;44.798;20.366;2022-12-07T09:05:16;12.93;;;11.13;;
43793;SDS011;29414;44.798;20.366;2022-12-07T09:09:16;11.83;;;9.83;;
43793;SDS011;29414;44.798;20.366;2022-12-07T09:13:17;12.30;;;11.03;;
43793;SDS011;29414;44.798;20.366;2022-12-07T09:17:17;12.37;;;10.17;;
43793;SDS011;29414;44.798;20.366;2022-12-07T09:21:17;13.53;;;11.20;;
43793;SDS011;29414;44.798;20.366;2022-12-07T09:25:18;11.33;;;10.13;;
43793;SDS011;29414;44.798;20.366;2022-12-07T09:29:18;11.80;;;9.60;;
43793;SDS011;29414;44.798;20.366;2022-12-07T09:33:18;12.17;;;10.83;;
43793;SDS011;29414;44.798;20.366;2022-12-07T09:37:18;12.50;;;10.13;;
43793;SDS011;29414;44.798;20.366;2022-12-07T09:41:19;16.10;;;11.07;;
43793;SDS011;29414;44.798;20.366;2022-12-07T09:49:21;12.77;;;10.37;;
43793;SDS011;29414;44.798;20.366;2022-12-07T09:53:26;11.57;;;9.60;;
43793;SDS011;29414;44.798;20.366;2022-12-07T09:57:32;12.43;;;10.03;;
43793;SDS011;29414;44.798;20.366;2022-12-07T10:01:38;10.67;;;9.33;;
43793;SDS011;29414;44.798;20.366;2022-12-07T10:05:40;11.57;;;10.37;;
43793;SDS011;29414;44.798;20.366;2022-12-07T10:09:42;12.40;;;11.20;;
43793;SDS011;29414;44.798;20.366;2022-12-07T10:13:44;13.87;;;11.67;;
43793;SDS011;29414;44.798;20.366;2022-12-07T10:17:52;19.10;;;14.03;;
43793;SDS011;29414;44.798;20.366;2022-12-07T10:22:12;17.50;;;12.67;;
43793;SDS011;29414;44.798;20.366;2022-12-07T10:26:20;17.03;;;12.73;;
43793;SDS011;29414;44.798;20.366;2022-12-07T10:30:21;13.73;;;11.17;;
43793;SDS011;29414;44.798;20.366;2022-12-07T10:34:26;12.33;;;10.37;;
43793;SDS011;29414;44.798;20.366;2022-12-07T10:38:27;16.07;;;11.87;;
43793;SDS011;29414;44.798;20.366;2022-12-07T10:42:28;13.63;;;11.53;;
43793;SDS011;29414;44.798;20.366;2022-12-07T10:54:51;14.67;;;12.97;;
43793;SDS011;29414;44.798;20.366;2022-12-07T11:07:22;14.52;;;12.50;;
43793;SDS011;29414;44.798;20.366;2022-12-07T11:40:37;17.30;;;14.30;;
43793;SDS011;29414;44.798;20.366;2022-12-07T11:48:40;18.83;;;16.00;;
43793;SDS011;29414;44.798;20.366;2022-12-07T11:52:48;20.67;;;17.07;;
43793;SDS011;29414;44.798;20.366;2022-12-07T11:56:51;18.33;;;16.17;;
43793;SDS011;29414;44.798;20.366;2022-12-07T12:01:07;17.80;;;15.33;;
43793;SDS011;29414;44.798;20.366;2022-12-07T12:05:21;15.47;;;12.90;;
43793;SDS011;29414;44.798;20.366;2022-12-07T12:21:37;19.90;;;15.27;;
43793;SDS011;29414;44.798;20.366;2022-12-07T12:29:39;17.17;;;13.40;;
43793;SDS011;29414;44.798;20.366;2022-12-07T12:33:50;15.03;;;12.47;;
43793;SDS011;29414;44.798;20.366;2022-12-07T12:37:52;12.80;;;10.77;;
43793;SDS011;29414;44.798;20.366;2022-12-07T12:41:54;13.50;;;11.03;;
43793;SDS011;29414;44.798;20.366;2022-12-07T12:50:17;16.80;;;12.50;;
43793;SDS011;29414;44.798;20.366;2022-12-07T13:18:40;13.13;;;10.90;;
43793;SDS011;29414;44.798;20.366;2022-12-07T13:22:42;9.73;;;8.50;;
43793;SDS011;29414;44.798;20.366;2022-12-07T13:26:43;11.13;;;9.90;;
43793;SDS011;29414;44.798;20.366;2022-12-07T13:30:54;12.83;;;10.50;;
43793;SDS011;29414;44.798;20.366;2022-12-07T13:34:58;15.23;;;12.07;;
43793;SDS011;29414;44.798;20.366;2022-12-07T13:38:58;13.40;;;10.67;;
43793;SDS011;29414;44.798;20.366;2022-12-07T13:43:00;12.93;;;11.00;;
43793;SDS011;29414;44.798;20.366;2022-12-07T13:47:10;14.93;;;11.77;;
43793;SDS011;29414;44.798;20.366;2022-12-07T13:51:26;11.50;;;10.30;;
43793;SDS011;29414;44.798;20.366;2022-12-07T13:55:27;12.57;;;10.77;;
43793;SDS011;29414;44.798;20.366;2022-12-07T13:59:28;13.90;;;11.40;;
43793;SDS011;29414;44.798;20.366;2022-12-07T14:03:31;16.27;;;13.17;;
43793;SDS011;29414;44.798;20.366;2022-12-07T14:07:32;21.63;;;14.60;;
43793;SDS011;29414;44.798;20.366;2022-12-07T14:11:33;21.83;;;15.73;;
43793;SDS011;29414;44.798;20.366;2022-12-07T14:15:34;24.83;;;17.70;;
43793;SDS011;29414;44.798;20.366;2022-12-07T14:19:40;26.37;;;18.73;;
43793;SDS011;29414;44.798;20.366;2022-12-07T14:23:40;31.52;;;20.58;;
43793;SDS011;29414;44.798;20.366;2022-12-07T14:28:02;25.97;;;19.63;;
43793;SDS011;29414;44.798;20.366;2022-12-07T14:32:13;23.50;;;17.70;;
43793;SDS011;29414;44.798;20.366;2022-12-07T14:36:16;22.07;;;18.63;;
43793;SDS011;29414;44.798;20.366;2022-12-07T14:40:18;24.27;;;18.25;;
43793;SDS011;29414;44.798;20.366;2022-12-07T14:44:19;25.83;;;17.67;;
43793;SDS011;29414;44.798;20.366;2022-12-07T14:48:20;19.37;;;15.23;;
43793;SDS011;29414;44.798;20.366;2022-12-07T14:52:22;17.53;;;14.30;;
43793;SDS011;29414;44.798;20.366;2022-12-07T14:56:23;18.77;;;15.03;;
43793;SDS011;29414;44.798;20.366;2022-12-07T15:00:27;22.13;;;15.47;;
43793;SDS011;29414;44.798;20.366;2022-12-07T15:04:27;19.00;;;14.63;;
43793;SDS011;29414;44.798;20.366;2022-12-07T15:08:27;19.08;;;14.13;;
43793;SDS011;29414;44.798;20.366;2022-12-07T15:12:28;17.50;;;13.27;;
43793;SDS011;29414;44.798;20.366;2022-12-07T15:16:28;22.50;;;15.50;;
43793;SDS011;29414;44.798;20.366;2022-12-07T15:20:28;20.83;;;15.77;;
43793;SDS011;29414;44.798;20.366;2022-12-07T15:24:29;18.93;;;16.00;;
43793;SDS011;29414;44.798;20.366;2022-12-07T15:28:29;20.70;;;16.03;;
43793;SDS011;29414;44.798;20.366;2022-12-07T15:32:29;19.33;;;15.07;;
43793;SDS011;29414;44.798;20.366;2022-12-07T15:36:30;19.43;;;14.93;;
43793;SDS011;29414;44.798;20.366;2022-12-07T15:40:31;19.90;;;13.53;;
43793;SDS011;29414;44.798;20.366;2022-12-07T15:44:31;21.97;;;16.53;;
43793;SDS011;29414;44.798;20.366;2022-12-07T15:48:50;23.37;;;17.83;;
43793;SDS011;29414;44.798;20.366;2022-12-07T15:52:50;23.00;;;17.97;;
43793;SDS011;29414;44.798;20.366;2022-12-07T15:57:11;23.63;;;17.63;;
43793;SDS011;29414;44.798;20.366;2022-12-07T16:01:31;23.17;;;17.47;;
43793;SDS011;29414;44.798;20.366;2022-12-07T16:05:32;24.07;;;20.10;;
43793;SDS011;29414;44.798;20.366;2022-12-07T16:09:33;24.73;;;18.87;;
43793;SDS011;29414;44.798;20.366;2022-12-07T16:13:33;24.63;;;20.40;;
43793;SDS011;29414;44.798;20.366;2022-12-07T16:17:34;26.60;;;17.27;;
43793;SDS011;29414;44.798;20.366;2022-12-07T16:21:34;23.77;;;18.97;;
43793;SDS011;29414;44.798;20.366;2022-12-07T16:25:35;23.80;;;18.50;;
43793;SDS011;29414;44.798;20.366;2022-12-07T16:29:36;24.07;;;19.13;;
43793;SDS011;29414;44.798;20.366;2022-12-07T16:33:37;22.80;;;17.43;;
43793;SDS011;29414;44.798;20.366;2022-12-07T16:37:38;23.83;;;17.70;;
43793;SDS011;29414;44.798;20.366;2022-12-07T16:41:38;23.07;;;18.37;;
43793;SDS011;29414;44.798;20.366;2022-12-07T16:45:39;25.13;;;19.13;;
43793;SDS011;29414;44.798;20.366;2022-12-07T16:49:42;19.00;;;15.60;;
43793;SDS011;29414;44.798;20.366;2022-12-07T16:53:42;22.37;;;17.40;;
43793;SDS011;29414;44.798;20.366;2022-12-07T16:57:42;21.40;;;17.13;;
43793;SDS011;29414;44.798;20.366;2022-12-07T17:01:43;22.40;;;16.37;;
43793;SDS011;29414;44.798;20.366;2022-12-07T17:05:43;22.37;;;16.73;;
43793;SDS011;29414;44.798;20.366;2022-12-07T17:09:44;15.60;;;13.47;;
43793;SDS011;29414;44.798;20.366;2022-12-07T17:13:45;19.37;;;14.53;;
43793;SDS011;29414;44.798;20.366;2022-12-07T17:18:13;20.60;;;16.03;;
43793;SDS011;29414;44.798;20.366;2022-12-07T17:22:33;23.27;;;16.87;;
43793;SDS011;29414;44.798;20.366;2022-12-07T17:26:34;23.57;;;18.37;;
43793;SDS011;29414;44.798;20.366;2022-12-07T17:30:34;26.00;;;18.73;;
43793;SDS011;29414;44.798;20.366;2022-12-07T17:34:34;22.93;;;18.67;;
43793;SDS011;29414;44.798;20.366;2022-12-07T17:38:36;23.17;;;17.67;;
43793;SDS011;29414;44.798;20.366;2022-12-07T17:42:37;20.53;;;16.77;;
43793;SDS011;29414;44.798;20.366;2022-12-07T17:46:39;21.90;;;17.93;;
43793;SDS011;29414;44.798;20.366;2022-12-07T17:50:39;23.60;;;18.10;;
43793;SDS011;29414;44.798;20.366;2022-12-07T17:54:58;22.90;;;18.63;;
43793;SDS011;29414;44.798;20.366;2022-12-07T17:58:58;21.20;;;16.50;;
43793;SDS011;29414;44.798;20.366;2022-12-07T18:02:59;21.13;;;17.07;;
43793;SDS011;29414;44.798;20.366;2022-12-07T18:06:59;22.55;;;17.60;;
43793;SDS011;29414;44.798;20.366;2022-12-07T18:11:00;22.37;;;17.40;;
43793;SDS011;29414;44.798;20.366;2022-12-07T18:15:00;27.37;;;18.93;;
43793;SDS011;29414;44.798;20.366;2022-12-07T18:19:02;20.43;;;17.20;;
43793;SDS011;29414;44.798;20.366;2022-12-07T18:23:02;20.87;;;16.70;;
43793;SDS011;29414;44.798;20.366;2022-12-07T18:27:03;20.97;;;16.13;;
43793;SDS011;29414;44.798;20.366;2022-12-07T18:31:04;20.27;;;15.33;;
43793;SDS011;29414;44.798;20.366;2022-12-07T18:35:04;19.40;;;16.33;;
43793;SDS011;29414;44.798;20.366;2022-12-07T18:39:05;31.00;;;22.47;;
43793;SDS011;29414;44.798;20.366;2022-12-07T18:43:05;36.13;;;28.63;;
43793;SDS011;29414;44.798;20.366;2022-12-07T18:47:06;42.90;;;32.70;;
43793;SDS011;29414;44.798;20.366;2022-12-07T18:51:07;37.13;;;29.13;;
43793;SDS011;29414;44.798;20.366;2022-12-07T18:55:08;34.00;;;27.13;;
43793;SDS011;29414;44.798;20.366;2022-12-07T18:59:12;34.87;;;27.20;;
43793;SDS011;29414;44.798;20.366;2022-12-07T19:03:31;33.70;;;27.13;;
43793;SDS011;29414;44.798;20.366;2022-12-07T19:07:31;33.63;;;27.20;;
43793;SDS011;29414;44.798;20.366;2022-12-07T19:11:32;36.10;;;29.93;;
43793;SDS011;29414;44.798;20.366;2022-12-07T19:15:50;49.03;;;37.33;;
43793;SDS011;29414;44.798;20.366;2022-12-07T19:19:50;51.60;;;39.73;;
43793;SDS011;29414;44.798;20.366;2022-12-07T19:23:50;46.00;;;35.50;;
43793;SDS011;29414;44.798;20.366;2022-12-07T19:27:51;43.57;;;34.13;;
43793;SDS011;29414;44.798;20.366;2022-12-07T19:31:51;39.20;;;31.87;;
43793;SDS011;29414;44.798;20.366;2022-12-07T19:35:51;36.63;;;29.60;;
43793;SDS011;29414;44.798;20.366;2022-12-07T19:39:51;33.20;;;26.97;;
43793;SDS011;29414;44.798;20.366;2022-12-07T19:43:52;31.40;;;26.10;;
43793;SDS011;29414;44.798;20.366;2022-12-07T19:47:52;37.33;;;29.50;;
43793;SDS011;29414;44.798;20.366;2022-12-07T19:51:53;33.28;;;27.13;;
43793;SDS011;29414;44.798;20.366;2022-12-07T19:55:54;31.47;;;25.90;;
43793;SDS011;29414;44.798;20.366;2022-12-07T19:59:54;30.27;;;24.80;;
43793;SDS011;29414;44.798;20.366;2022-12-07T20:03:55;31.87;;;26.33;;
43793;SDS011;29414;44.798;20.366;2022-12-07T20:07:56;30.13;;;24.47;;
43793;SDS011;29414;44.798;20.366;2022-12-07T20:11:56;30.40;;;25.60;;
43793;SDS011;29414;44.798;20.366;2022-12-07T20:16:15;32.70;;;26.20;;
43793;SDS011;29414;44.798;20.366;2022-12-07T20:20:15;28.00;;;24.53;;
43793;SDS011;29414;44.798;20.366;2022-12-07T20:24:17;29.43;;;22.70;;
43793;SDS011;29414;44.798;20.366;2022-12-07T20:28:17;32.40;;;24.30;;
43793;SDS011;29414;44.798;20.366;2022-12-07T20:32:18;29.07;;;22.93;;
43793;SDS011;29414;44.798;20.366;2022-12-07T20:36:18;30.73;;;23.37;;
43793;SDS011;29414;44.798;20.366;2022-12-07T20:40:19;32.23;;;24.00;;
43793;SDS011;29414;44.798;20.366;2022-12-07T20:44:19;30.23;;;24.97;;
43793;SDS011;29414;44.798;20.366;2022-12-07T20:48:20;32.77;;;25.53;;
43793;SDS011;29414;44.798;20.366;2022-12-07T20:52:20;33.63;;;27.27;;
43793;SDS011;29414;44.798;20.366;2022-12-07T20:56:25;37.87;;;29.90;;
43793;SDS011;29414;44.798;20.366;2022-12-07T21:00:28;38.77;;;29.73;;
43793;SDS011;29414;44.798;20.366;2022-12-07T21:04:29;40.07;;;29.60;;
43793;SDS011;29414;44.798;20.366;2022-12-07T21:08:29;38.10;;;30.20;;
43793;SDS011;29414;44.798;20.366;2022-12-07T21:12:29;38.97;;;31.47;;
43793;SDS011;29414;44.798;20.366;2022-12-07T21:16:30;40.30;;;30.50;;
43793;SDS011;29414;44.798;20.366;2022-12-07T21:20:30;49.07;;;36.00;;
43793;SDS011;29414;44.798;20.366;2022-12-07T21:24:31;42.70;;;33.27;;
43793;SDS011;29414;44.798;20.366;2022-12-07T21:28:31;40.17;;;30.17;;
43793;SDS011;29414;44.798;20.366;2022-12-07T21:32:31;37.83;;;28.20;;
43793;SDS011;29414;44.798;20.366;2022-12-07T21:36:32;38.07;;;30.27;;
43793;SDS011;29414;44.798;20.366;2022-12-07T21:40:32;37.40;;;29.17;;
43793;SDS011;29414;44.798;20.366;2022-12-07T21:44:33;37.97;;;29.47;;
43793;SDS011;29414;44.798;20.366;2022-12-07T21:48:33;37.07;;;28.13;;
43793;SDS011;29414;44.798;20.366;2022-12-07T21:52:34;36.33;;;29.80;;
43793;SDS011;29414;44.798;20.366;2022-12-07T21:56:35;40.93;;;29.73;;
43793;SDS011;29414;44.798;20.366;2022-12-07T22:00:36;37.87;;;29.73;;
43793;SDS011;29414;44.798;20.366;2022-12-07T22:04:36;38.60;;;29.17;;
43793;SDS011;29414;44.798;20.366;2022-12-07T22:08:37;34.60;;;29.55;;
43793;SDS011;29414;44.798;20.366;2022-12-07T22:12:37;39.70;;;32.33;;
43793;SDS011;29414;44.798;20.366;2022-12-07T22:16:37;40.37;;;33.23;;
43793;SDS011;29414;44.798;20.366;2022-12-07T22:20:38;42.70;;;36.30;;
43793;SDS011;29414;44.798;20.366;2022-12-07T22:24:38;51.17;;;38.67;;
43793;SDS011;29414;44.798;20.366;2022-12-07T22:28:39;45.80;;;37.37;;
43793;SDS011;29414;44.798;20.366;2022-12-07T22:32:39;47.80;;;36.80;;
43793;SDS011;29414;44.798;20.366;2022-12-07T22:36:40;70.90;;;52.77;;
43793;SDS011;29414;44.798;20.366;2022-12-07T22:40:40;54.20;;;42.40;;
43793;SDS011;29414;44.798;20.366;2022-12-07T22:44:40;56.60;;;41.30;;
43793;SDS011;29414;44.798;20.366;2022-12-07T22:48:42;50.20;;;40.43;;
43793;SDS011;29414;44.798;20.366;2022-12-07T22:52:42;44.03;;;35.33;;
43793;SDS011;29414;44.798;20.366;2022-12-07T22:56:42;41.87;;;34.50;;
43793;SDS011;29414;44.798;20.366;2022-12-07T23:00:43;35.17;;;28.40;;
43793;SDS011;29414;44.798;20.366;2022-12-07T23:04:43;29.20;;;23.67;;
43793;SDS011;29414;44.798;20.366;2022-12-07T23:08:43;27.07;;;22.43;;
43793;SDS011;29414;44.798;20.366;2022-12-07T23:12:47;23.40;;;20.07;;
43793;SDS011;29414;44.798;20.366;2022-12-07T23:17:06;23.20;;;18.90;;
43793;SDS011;29414;44.798;20.366;2022-12-07T23:21:06;22.23;;;19.43;;
43793;SDS011;29414;44.798;20.366;2022-12-07T23:25:07;21.60;;;19.40;;
43793;SDS011;29414;44.798;20.366;2022-12-07T23:29:08;23.60;;;19.73;;
43793;SDS011;29414;44.798;20.366;2022-12-07T23:33:08;23.20;;;19.37;;
43793;SDS011;29414;44.798;20.366;2022-12-07T23:37:08;23.00;;;19.90;;
43793;SDS011;29414;44.798;20.366;2022-12-07T23:41:10;23.67;;;18.90;;
43793;SDS011;29414;44.798;20.366;2022-12-07T23:45:10;21.93;;;19.47;;
43793;SDS011;29414;44.798;20.366;2022-12-07T23:49:10;25.37;;;19.97;;
43793;SDS011;29414;44.798;20.366;2022-12-07T23:53:14;22.40;;;19.00;;
43793;SDS011;29414;44.798;20.366;2022-12-07T23:57:14;23.27;;;19.52;;
